createdAt,value
2023-02-26T03:03:39.399Z,0.55
2023-02-26T03:04:42.724Z,0.88
2023-02-26T03:05:44.683Z,0.70
2023-02-26T03:06:46.904Z,0.65
2023-02-26T03:08:00.692Z,0.70
2023-02-26T03:09:04.331Z,0.70
2023-02-26T03:10:07.119Z,0.80
2023-02-26T03:11:09.503Z,0.60
2023-02-26T03:12:11.347Z,0.68
2023-02-26T03:13:21.796Z,0.73
2023-02-26T03:14:24.494Z,1.05
2023-02-26T03:15:42.705Z,0.80
2023-02-26T03:17:07.473Z,0.98
2023-02-26T03:18:42.977Z,0.88
2023-02-26T03:20:14.130Z,0.70
2023-02-26T03:21:48.113Z,0.75
2023-02-26T03:22:49.936Z,0.70
2023-02-26T03:24:09.669Z,0.80
2023-02-26T03:25:18.222Z,0.90
2023-02-26T03:26:29.957Z,0.98
2023-02-26T03:27:44.867Z,0.73
2023-02-26T03:28:57.152Z,0.60
2023-02-26T03:30:16.033Z,0.65
2023-02-26T03:31:31.283Z,0.82
2023-02-26T03:32:53.950Z,0.82
2023-02-26T03:34:02.668Z,0.90
2023-02-26T03:35:30.495Z,1.33
2023-02-26T03:36:35.997Z,1.10
2023-02-26T03:37:47.095Z,1.05
2023-02-26T03:39:12.490Z,0.85
2023-02-26T03:40:24.972Z,0.80
2023-02-26T03:41:56.705Z,0.98
2023-02-26T03:43:10.721Z,0.80
2023-02-26T03:44:36.494Z,1.10
2023-02-26T03:45:41.680Z,1.33
2023-02-26T03:46:48.132Z,1.30
2023-02-26T03:47:53.885Z,1.05
2023-02-26T03:48:59.025Z,1.33
2023-02-26T03:50:20.298Z,1.10
2023-02-26T03:51:23.322Z,0.93
2023-02-26T03:52:28.962Z,1.20
2023-02-26T03:53:34.739Z,1.20
2023-02-26T03:54:42.358Z,1.20
2023-02-26T03:56:00.868Z,1.17
2023-02-26T03:57:03.159Z,1.10
2023-02-26T03:58:05.200Z,1.27
2023-02-26T03:59:07.315Z,1.23
2023-02-26T04:00:10.515Z,0.98
2023-02-26T04:01:29.350Z,1.20
2023-02-26T04:24:26.187Z,1.70
2023-02-26T04:53:20.578Z,1.95
2023-02-26T04:54:22.406Z,1.27
2023-02-26T04:55:24.254Z,1.45
2023-02-26T04:56:26.844Z,1.20
2023-02-26T04:57:28.979Z,1.55
2023-02-26T04:58:30.852Z,1.30
2023-02-26T04:59:32.961Z,1.13
2023-02-26T05:00:35.051Z,1.40
2023-02-26T05:01:37.014Z,1.33
2023-02-26T05:02:41.521Z,1.35
2023-02-26T05:03:43.356Z,1.40
2023-02-26T05:04:45.270Z,1.50
2023-02-26T05:05:47.785Z,1.40
2023-02-26T05:06:49.774Z,1.33
2023-02-26T05:07:53.925Z,1.80
2023-02-26T05:08:55.729Z,1.50
2023-02-26T05:09:57.574Z,1.50
2023-02-26T05:10:59.391Z,1.73
2023-02-26T05:12:01.279Z,1.58
2023-02-26T05:13:03.664Z,1.40
2023-02-26T05:14:05.488Z,1.33
2023-02-26T05:15:08.092Z,1.80
2023-02-26T05:16:10.011Z,1.55
2023-02-26T05:17:12.275Z,1.30
2023-02-26T05:18:14.197Z,1.35
2023-02-26T05:19:16.913Z,1.50
2023-02-26T05:20:18.778Z,1.42
2023-02-26T05:21:22.711Z,1.33
2023-02-26T05:22:25.386Z,1.27
2023-02-26T05:23:27.626Z,1.40
2023-02-26T05:24:29.522Z,1.20
2023-02-26T05:25:31.405Z,1.50
2023-02-26T05:26:33.519Z,1.25
2023-02-26T05:27:35.584Z,1.67
2023-02-26T05:28:38.176Z,1.45
2023-02-26T05:29:42.166Z,1.42
2023-02-26T05:30:44.152Z,1.75
2023-02-26T05:31:46.352Z,1.42
2023-02-26T05:32:48.426Z,1.30
2023-02-26T05:33:50.466Z,1.60
2023-02-26T05:34:52.270Z,1.35
2023-02-26T05:35:54.421Z,1.25
2023-02-26T05:36:56.263Z,1.40
2023-02-26T05:37:58.249Z,1.60
2023-02-26T05:39:00.529Z,1.23
2023-02-26T05:40:02.870Z,1.75
2023-02-26T05:41:04.945Z,2.10
2023-02-26T05:42:07.216Z,1.40
2023-02-26T05:43:09.235Z,1.50
2023-02-26T05:44:11.454Z,1.20
2023-02-26T05:45:13.511Z,2.10
2023-02-26T05:46:15.481Z,1.55
2023-02-26T05:47:17.603Z,1.88
2023-02-26T05:48:19.544Z,1.73
2023-02-26T05:49:21.634Z,1.48
2023-02-26T05:50:23.498Z,1.67
2023-02-26T05:51:25.355Z,1.75
2023-02-26T05:52:27.257Z,1.48
2023-02-26T05:53:29.708Z,1.85
2023-02-26T05:54:31.625Z,1.75
2023-02-26T05:55:33.459Z,1.80
2023-02-26T05:56:35.434Z,1.90
2023-02-26T05:57:37.290Z,2.00
2023-02-26T05:58:39.154Z,1.85
2023-02-26T05:59:41.045Z,1.85
2023-02-26T06:00:43.513Z,2.00
2023-02-26T06:01:45.602Z,1.90
2023-02-26T06:02:47.441Z,1.75
2023-02-26T06:03:49.772Z,2.00
2023-02-26T06:04:51.639Z,2.10
2023-02-26T06:05:53.468Z,2.03
2023-02-26T06:06:55.444Z,1.80
2023-02-26T06:07:57.737Z,1.70
2023-02-26T06:09:01.377Z,1.55
2023-02-26T06:10:03.764Z,1.70
2023-02-26T06:11:06.300Z,1.55
2023-02-26T06:12:08.318Z,1.95
2023-02-26T06:13:10.204Z,1.63
2023-02-26T06:14:12.248Z,1.70
2023-02-26T06:15:14.105Z,1.80
2023-02-26T06:16:16.261Z,1.40
2023-02-26T06:17:21.433Z,1.70
2023-02-26T06:18:26.421Z,1.85
2023-02-26T06:19:28.307Z,1.30
2023-02-26T06:20:30.288Z,2.00
2023-02-26T06:21:32.235Z,1.50
2023-02-26T06:22:34.116Z,1.50
2023-02-26T06:23:36.430Z,1.67
2023-02-26T06:24:38.340Z,1.70
2023-02-26T06:25:40.336Z,1.88
2023-02-26T06:26:43.444Z,2.00
2023-02-26T06:27:45.276Z,1.33
2023-02-26T06:28:59.603Z,1.67
2023-02-26T06:30:05.727Z,1.60
2023-02-26T06:31:07.744Z,1.65
2023-02-26T06:32:09.812Z,1.80
2023-02-26T06:33:11.784Z,1.88
2023-02-26T06:34:13.739Z,1.52
2023-02-26T06:35:15.857Z,1.60
2023-02-26T06:36:17.733Z,1.75
2023-02-26T06:37:19.613Z,1.48
2023-02-26T06:38:21.493Z,1.73
2023-02-26T06:39:23.458Z,1.52
2023-02-26T06:40:25.388Z,1.38
2023-02-26T06:41:27.370Z,1.50
2023-02-26T06:42:29.259Z,1.50
2023-02-26T06:43:31.085Z,1.45
2023-02-26T06:44:32.984Z,1.42
2023-02-26T06:45:35.540Z,2.10
2023-02-26T06:46:38.029Z,1.40
2023-02-26T06:47:40.276Z,1.67
2023-02-26T06:48:42.157Z,1.67
2023-02-26T06:49:43.981Z,1.35
2023-02-26T06:50:45.857Z,1.40
2023-02-26T06:51:47.839Z,1.48
2023-02-26T06:52:49.790Z,1.83
2023-02-26T06:53:51.713Z,1.73
2023-02-26T06:54:53.593Z,1.65
2023-02-26T06:55:55.527Z,1.48
2023-02-26T06:56:57.875Z,1.70
2023-02-26T06:57:59.963Z,1.42
2023-02-26T06:59:01.876Z,1.70
2023-02-26T07:00:09.392Z,2.00
2023-02-26T07:01:11.284Z,1.55
2023-02-26T07:02:17.997Z,2.03
2023-02-26T07:03:21.062Z,1.73
2023-02-26T07:04:23.034Z,1.98
2023-02-26T07:05:25.364Z,1.60
2023-02-26T07:06:28.175Z,1.83
2023-02-26T07:07:30.554Z,1.73
2023-02-26T07:08:32.424Z,1.70
2023-02-26T07:09:34.356Z,1.83
2023-02-26T07:10:37.469Z,1.58
2023-02-26T07:11:39.754Z,1.70
2023-02-26T07:12:41.615Z,1.80
2023-02-26T07:13:43.443Z,1.70
2023-02-26T07:14:46.112Z,1.77
2023-02-26T07:15:48.024Z,2.00
2023-02-26T07:16:50.110Z,1.95
2023-02-26T07:17:52.100Z,1.77
2023-02-26T07:18:54.045Z,1.75
2023-02-26T07:19:55.946Z,2.00
2023-02-26T07:20:57.872Z,1.45
2023-02-26T07:21:59.727Z,1.88
2023-02-26T07:23:01.733Z,1.73
2023-02-26T07:24:03.856Z,2.03
2023-02-26T07:25:07.218Z,2.10
2023-02-26T07:26:09.131Z,2.10
2023-02-26T07:27:11.351Z,1.98
2023-02-26T07:28:13.160Z,1.95
2023-02-26T07:29:15.095Z,2.13
2023-02-26T07:30:17.237Z,1.70
2023-02-26T07:31:20.074Z,2.05
2023-02-26T07:32:22.769Z,2.03
2023-02-26T07:33:26.641Z,2.13
2023-02-26T07:34:28.748Z,1.92
2023-02-26T07:35:30.692Z,2.05
2023-02-26T07:36:32.649Z,2.40
2023-02-26T07:37:34.729Z,2.08
2023-02-26T07:38:36.701Z,1.70
2023-02-26T07:39:38.800Z,1.80
2023-02-26T07:40:40.690Z,2.05
2023-02-26T07:41:43.550Z,2.38
2023-02-26T07:42:45.493Z,2.40
2023-02-26T07:43:47.405Z,2.17
2023-02-26T07:44:49.347Z,2.17
2023-02-26T07:45:52.393Z,2.22
2023-02-26T07:46:54.404Z,2.33
2023-02-26T07:47:56.317Z,1.90
2023-02-26T07:48:58.170Z,1.85
2023-02-26T07:50:00.201Z,2.13
2023-02-26T07:51:02.101Z,1.70
2023-02-26T07:52:04.245Z,1.80
2023-02-26T07:53:06.274Z,1.95
2023-02-26T07:54:08.111Z,2.17
2023-02-26T07:55:11.264Z,2.15
2023-02-26T07:56:13.212Z,1.83
2023-02-26T07:57:15.087Z,2.45
2023-02-26T07:58:17.594Z,2.00
2023-02-26T07:59:20.749Z,2.00
2023-02-26T08:00:22.880Z,1.70
2023-02-26T08:01:24.940Z,2.25
2023-02-26T08:02:27.007Z,2.40
2023-02-26T08:03:29.006Z,2.20
2023-02-26T08:04:33.102Z,2.13
2023-02-26T08:05:35.030Z,1.92
2023-02-26T08:06:37.397Z,2.22
2023-02-26T08:07:39.273Z,2.25
2023-02-26T08:08:41.155Z,2.25
2023-02-26T08:09:43.082Z,2.30
2023-02-26T08:10:45.034Z,2.13
2023-02-26T08:11:48.153Z,2.35
2023-02-26T08:12:50.024Z,2.30
2023-02-26T08:13:52.041Z,2.47
2023-02-26T08:14:53.915Z,2.00
2023-02-26T08:15:55.879Z,2.20
2023-02-26T08:16:57.889Z,2.08
2023-02-26T08:17:59.745Z,2.63
2023-02-26T08:19:01.722Z,2.30
2023-02-26T08:20:05.174Z,2.53
2023-02-26T08:21:07.830Z,2.55
2023-02-26T08:22:09.724Z,2.35
2023-02-26T08:23:11.600Z,2.40
2023-02-26T08:24:14.082Z,2.55
2023-02-26T08:25:16.180Z,1.83
2023-02-26T08:26:18.889Z,2.10
2023-02-26T08:27:20.998Z,2.40
2023-02-26T08:28:22.861Z,2.20
2023-02-26T08:29:25.348Z,2.55
2023-02-26T08:30:27.266Z,2.25
2023-02-26T08:31:29.333Z,2.30
2023-02-26T08:32:31.404Z,2.70
2023-02-26T08:33:34.199Z,2.35
2023-02-26T08:34:36.155Z,2.42
2023-02-26T08:35:39.333Z,2.10
2023-02-26T08:36:41.187Z,2.17
2023-02-26T08:37:43.285Z,2.45
2023-02-26T08:38:45.205Z,2.67
2023-02-26T08:39:47.131Z,2.20
2023-02-26T08:40:52.848Z,2.13
2023-02-26T08:41:54.721Z,2.10
2023-02-26T08:42:58.467Z,2.13
2023-02-26T08:44:02.407Z,1.92
2023-02-26T08:45:04.733Z,2.28
2023-02-26T08:46:06.878Z,1.90
2023-02-26T08:47:09.315Z,2.22
2023-02-26T08:48:11.381Z,2.38
2023-02-26T08:49:13.314Z,1.67
2023-02-26T08:50:15.976Z,1.77
2023-02-26T08:51:19.084Z,2.20
2023-02-26T08:52:21.586Z,2.17
2023-02-26T08:53:23.574Z,1.88
2023-02-26T08:54:25.653Z,1.85
2023-02-26T08:55:27.586Z,2.10
2023-02-26T08:56:29.952Z,2.00
2023-02-26T08:57:31.959Z,2.20
2023-02-26T08:58:34.070Z,2.13
2023-02-26T08:59:36.162Z,1.90
2023-02-26T09:00:38.240Z,2.33
2023-02-26T09:01:40.454Z,1.88
2023-02-26T09:02:42.835Z,1.70
2023-02-26T09:03:54.079Z,1.88
2023-02-26T09:04:56.059Z,2.00
2023-02-26T09:05:58.096Z,2.83
2023-02-26T09:07:00.161Z,1.77
2023-02-26T09:08:02.062Z,2.08
2023-02-26T09:09:04.527Z,2.03
2023-02-26T09:10:07.381Z,2.30
2023-02-26T09:11:12.639Z,1.90
2023-02-26T09:12:14.465Z,2.08
2023-02-26T09:13:16.355Z,1.90
2023-02-26T09:14:18.400Z,1.95
2023-02-26T09:15:20.812Z,2.10
2023-02-26T09:16:22.857Z,1.55
2023-02-26T09:17:26.007Z,1.88
2023-02-26T09:18:28.171Z,2.08
2023-02-26T09:19:32.727Z,2.10
2023-02-26T09:20:40.969Z,1.40
2023-02-26T09:21:45.030Z,1.77
2023-02-26T09:22:47.072Z,2.15
2023-02-26T09:23:49.003Z,1.70
2023-02-26T09:24:51.149Z,1.42
2023-02-26T09:25:55.030Z,1.60
2023-02-26T09:26:59.296Z,1.90
2023-02-26T09:28:04.928Z,1.65
2023-02-26T09:29:06.965Z,1.70
2023-02-26T09:30:10.099Z,1.85
2023-02-26T09:31:12.278Z,2.22
2023-02-26T09:32:14.576Z,1.65
2023-02-26T09:33:16.589Z,1.60
2023-02-26T09:34:18.769Z,1.50
2023-02-26T09:35:22.576Z,1.20
2023-02-26T09:36:24.833Z,1.40
2023-02-26T09:37:26.904Z,2.28
2023-02-26T09:38:28.953Z,1.70
2023-02-26T09:39:30.808Z,1.40
2023-02-26T09:40:47.765Z,1.40
2023-02-26T09:41:56.445Z,1.33
2023-02-26T09:43:19.188Z,1.38
2023-02-26T09:44:27.011Z,1.50
2023-02-26T09:45:36.541Z,1.20
2023-02-26T09:46:56.847Z,1.42
2023-02-26T09:48:00.133Z,1.40
2023-02-26T09:49:10.925Z,0.90
2023-02-26T09:53:41.340Z,1.25
2023-02-26T09:54:53.474Z,1.40
2023-02-26T09:56:02.034Z,1.00
2023-02-26T09:57:06.066Z,1.20
2023-02-26T09:58:19.132Z,1.40
2023-02-26T09:59:21.368Z,1.27
2023-02-26T10:00:52.353Z,1.80
2023-02-26T10:02:32.550Z,1.50
2023-02-26T10:05:17.486Z,1.75
2023-02-26T10:06:31.034Z,1.70
2023-02-26T10:07:51.208Z,2.15
2023-02-26T10:09:15.274Z,2.22
2023-02-26T10:10:45.454Z,1.80
2023-02-26T10:11:57.478Z,1.73
2023-02-26T10:13:02.162Z,1.50
2023-02-26T10:14:32.245Z,1.70
2023-02-26T10:15:42.612Z,1.52
2023-02-26T10:16:50.930Z,1.58
2023-02-26T10:17:58.939Z,1.60
2023-02-26T10:20:19.911Z,1.38
2023-02-26T10:38:31.928Z,1.58
2023-02-26T10:39:44.710Z,1.35
2023-02-26T10:40:59.481Z,1.33
2023-02-26T11:54:29.720Z,1.40
